»·PEaware :: UAL1 KLAX-VHHX

UAL1 :: KLAX-VHHX

FLIGHT INFORMATION

Flight Status: Arrived
Operator:
United Airlines
More flights by this operator :: More flights under this callsign
Pilot: Henderson P. (1210)
Aircraft: BOEING 747-400 (WINGLETS)
(B744)
More flights by this aircraft type
Origin: KLAX Los Angeles Intl
United States
Destination: VHHX Hong Kong Kai Tak
Hong Kong
More flights between these airports :: More routes between these airports
Route: +SUMMR1 MCKEY/N0504F320 LIBBO BRINY ALCOA CEPAS COBAD 41N140W 41N150W 41N160W 41N170W 41N180E/N0490F340 41N170E 40N160E EMRON/N0488F360 OTR9 AVBET OTR11 KAGIS Y51 INUBO Y50 HKC A1 SAPET/N0485F380 A1 APU DCT MKG A1 ELATO V522 ABBEY
File this flight plan on PilotEdge
Remarks:
Altitude:
(Current/Filed)
30,000ft
Speed:
(Current/Filed)
506kts
Departed: 24-Jul-18 12:49 PM
Arrived: 25-Jul-18 02:05 AM
Distance/Time
Traveled:
6283nm/13:16
Distance/Time
To Go:
Arrived

Flight Plot

Page will automatically refresh every two minutes.

Flight plan parsing failed; only flown route is shown


Map Options




Map Legend


Flown Route
Filed Route
Departure Airport
Arrival Airport
Navaid (VOR, NDB)
Fix

Horizontal Profiles

Position Reports

Time Latitude Longitude Heading Altitude Ground
Speed
24-Jul-18 11:48 33.940231 -118.399961 32 139ft 0kts
24-Jul-18 11:49 33.940231 -118.399961 32 139ft 0kts
24-Jul-18 11:50 33.940231 -118.399961 32 139ft 0kts
24-Jul-18 11:51 33.940231 -118.399961 32 139ft 0kts
24-Jul-18 11:52 33.940231 -118.399961 32 139ft 0kts
24-Jul-18 11:53 33.940231 -118.399961 32 139ft 0kts
24-Jul-18 11:54 33.940231 -118.399961 32 139ft 0kts
24-Jul-18 11:55 33.940231 -118.399961 32 139ft 0kts
24-Jul-18 11:56 33.940231 -118.399961 32 139ft 0kts
24-Jul-18 11:57 33.940231 -118.399961 32 139ft 0kts
24-Jul-18 11:58 33.940231 -118.399961 32 139ft 0kts
24-Jul-18 11:59 33.940231 -118.399961 32 139ft 0kts
24-Jul-18 12:00 33.940231 -118.399961 32 139ft 0kts
24-Jul-18 12:01 33.940231 -118.399961 32 139ft 0kts
24-Jul-18 12:02 33.940231 -118.399961 32 139ft 0kts
24-Jul-18 12:03 33.940231 -118.399961 32 139ft 0kts
24-Jul-18 12:04 33.940231 -118.399961 32 139ft 0kts
24-Jul-18 12:05 33.940231 -118.399961 32 139ft 0kts
24-Jul-18 12:06 33.940231 -118.399961 32 139ft 0kts
24-Jul-18 12:07 33.940231 -118.399961 32 139ft 0kts
24-Jul-18 12:08 33.940231 -118.399961 32 139ft 0kts
24-Jul-18 12:09 33.940231 -118.399961 32 139ft 0kts
24-Jul-18 12:10 33.940231 -118.399961 32 139ft 0kts
24-Jul-18 12:11 33.940231 -118.399961 32 139ft 0kts
24-Jul-18 12:12 33.940231 -118.399961 32 139ft 0kts
24-Jul-18 12:13 33.940231 -118.399961 32 139ft 0kts
24-Jul-18 12:14 33.940231 -118.399961 32 139ft 0kts
24-Jul-18 12:15 33.940231 -118.399961 32 139ft 0kts
24-Jul-18 12:16 33.940231 -118.399961 32 139ft 0kts
24-Jul-18 12:17 33.940231 -118.399961 32 139ft 0kts
24-Jul-18 12:18 33.940231 -118.399961 32 139ft 0kts
24-Jul-18 12:19 33.940231 -118.399961 32 139ft 0kts
24-Jul-18 12:20 33.940231 -118.399961 32 139ft 0kts
24-Jul-18 12:21 33.940231 -118.399961 32 139ft 0kts
24-Jul-18 12:22 33.940231 -118.399961 32 139ft 0kts
24-Jul-18 12:23 33.940231 -118.399961 32 139ft 0kts
24-Jul-18 12:24 33.940231 -118.399961 32 139ft 0kts
24-Jul-18 12:25 33.940231 -118.399961 32 139ft 0kts
24-Jul-18 12:26 33.940231 -118.399961 32 139ft 0kts
24-Jul-18 12:27 33.940231 -118.399961 32 139ft 0kts
24-Jul-18 12:28 33.940231 -118.399961 32 139ft 0kts
24-Jul-18 12:29 33.940231 -118.399961 32 139ft 0kts
24-Jul-18 12:30 33.940231 -118.399961 32 139ft 0kts
24-Jul-18 12:31 33.940231 -118.399961 32 139ft 0kts
24-Jul-18 12:32 33.940231 -118.399961 32 139ft 0kts
24-Jul-18 12:33 33.940231 -118.399961 32 139ft 0kts
24-Jul-18 12:34 33.940231 -118.399961 32 139ft 0kts
24-Jul-18 12:35 33.940231 -118.399961 32 139ft 0kts
24-Jul-18 12:36 33.940231 -118.399961 32 139ft 0kts
24-Jul-18 12:37 33.940231 -118.399961 32 139ft 0kts
24-Jul-18 12:38 33.939805 -118.400382 42 139ft 2kts
24-Jul-18 12:39 33.939487 -118.400960 85 139ft 2kts
24-Jul-18 12:40 33.939464 -118.401235 83 139ft 0kts
24-Jul-18 12:41 33.939464 -118.401235 83 139ft 0kts
24-Jul-18 12:42 33.939464 -118.401235 83 139ft 0kts
24-Jul-18 12:43 33.939137 -118.400535 163 139ft 7kts
24-Jul-18 12:44 33.938941 -118.398371 82 139ft 7kts
24-Jul-18 12:45 33.939321 -118.394684 83 139ft 11kts
24-Jul-18 12:46 33.939678 -118.391228 83 139ft 10kts
24-Jul-18 12:47 33.940108 -118.387011 82 139ft 12kts
24-Jul-18 12:48 33.940521 -118.383025 82 139ft 11kts
24-Jul-18 12:49 33.939933 -118.380373 203 139ft 9kts
24-Jul-18 12:50 33.938009 -118.397996 262 139ft 149kts
24-Jul-18 12:51 33.931604 -118.458338 263 1528ft 197kts
24-Jul-18 12:52 33.925894 -118.530677 263 1826ft 238kts
24-Jul-18 12:53 33.918761 -118.616269 263 2388ft 277kts
24-Jul-18 12:54 33.917400 -118.709436 271 3742ft 305kts
24-Jul-18 12:55 33.917056 -118.814136 270 5688ft 320kts
24-Jul-18 12:56 33.919691 -118.923011 273 7645ft 330kts
24-Jul-18 12:57 33.931542 -119.031485 294 9483ft 334kts
24-Jul-18 12:58 33.981860 -119.131731 302 10366ft 376kts
24-Jul-18 12:59 34.056792 -119.228702 324 11593ft 412kts
24-Jul-18 13:00 34.152939 -119.309526 324 13642ft 429kts
24-Jul-18 13:01 34.251866 -119.394359 323 15747ft 442kts
24-Jul-18 13:02 34.353506 -119.482489 323 17662ft 457kts
24-Jul-18 13:03 34.449824 -119.585064 310 19533ft 469kts
24-Jul-18 13:04 34.534766 -119.707799 308 21182ft 482kts
24-Jul-18 13:05 34.622457 -119.833611 308 22750ft 494kts
24-Jul-18 13:06 34.712452 -119.961578 308 23376ft 501kts
24-Jul-18 13:07 34.803619 -120.092254 307 24798ft 511kts
24-Jul-18 13:08 34.896266 -120.225707 307 25983ft 521kts
24-Jul-18 13:09 34.990491 -120.361937 307 27035ft 530kts
24-Jul-18 13:10 35.085965 -120.500534 306 28111ft 533kts
24-Jul-18 13:11 35.181143 -120.639255 306 29247ft 533kts
24-Jul-18 13:12 35.276034 -120.778105 306 30186ft 532kts
24-Jul-18 13:13 35.370870 -120.917084 305 30994ft 531kts
24-Jul-18 13:14 35.464901 -121.056124 305 31641ft 531kts
24-Jul-18 13:15 35.560604 -121.194772 306 32039ft 531kts
24-Jul-18 13:16 35.655917 -121.332658 306 32047ft 530kts
24-Jul-18 13:17 35.751818 -121.471204 306 32076ft 530kts
24-Jul-18 13:18 35.847404 -121.609587 306 32093ft 530kts
24-Jul-18 13:19 35.942185 -121.748410 305 32105ft 529kts
24-Jul-18 13:20 36.032853 -121.888659 295 32173ft 521kts
24-Jul-18 13:21 36.102979 -122.045758 293 32124ft 521kts
24-Jul-18 13:22 36.172239 -122.203327 293 32128ft 521kts
24-Jul-18 13:23 36.241162 -122.360802 293 32138ft 521kts
24-Jul-18 13:24 36.309956 -122.518695 293 32135ft 520kts
24-Jul-18 13:25 36.378352 -122.676436 293 32125ft 519kts
24-Jul-18 13:26 36.446643 -122.834692 293 32122ft 519kts
24-Jul-18 13:27 36.514651 -122.993054 293 32126ft 518kts
24-Jul-18 13:28 36.582154 -123.151003 293 32136ft 517kts
24-Jul-18 13:29 36.649596 -123.309582 293 32154ft 518kts
24-Jul-18 13:30 36.716782 -123.468318 293 32157ft 517kts
24-Jul-18 13:31 36.783726 -123.627272 293 32162ft 517kts
24-Jul-18 13:32 36.850454 -123.786476 292 32158ft 517kts
24-Jul-18 13:33 36.916917 -123.945838 292 32158ft 517kts
24-Jul-18 13:34 36.983046 -124.105198 292 32157ft 516kts
24-Jul-18 13:35 37.048783 -124.264377 292 32160ft 516kts
24-Jul-18 13:36 37.114386 -124.424033 292 32160ft 516kts
24-Jul-18 13:37 37.179861 -124.584175 292 32160ft 515kts
24-Jul-18 13:38 37.245146 -124.744659 292 32160ft 515kts
24-Jul-18 13:39 37.309958 -124.904786 292 32142ft 515kts
24-Jul-18 13:40 37.374671 -125.065476 292 32099ft 515kts
24-Jul-18 13:41 37.438926 -125.225848 292 32099ft 515kts
24-Jul-18 13:42 37.503224 -125.387127 292 32090ft 514kts
24-Jul-18 13:43 37.567233 -125.548513 292 32103ft 514kts
24-Jul-18 13:44 37.630848 -125.709727 292 32112ft 514kts
24-Jul-18 13:45 37.694285 -125.871317 292 32111ft 513kts
24-Jul-18 13:46 37.757523 -126.033223 291 32110ft 513kts
24-Jul-18 13:47 37.820384 -126.194992 291 32109ft 513kts
24-Jul-18 13:48 37.883148 -126.357338 291 32111ft 513kts
24-Jul-18 13:49 37.945623 -126.519727 291 32108ft 513kts
24-Jul-18 13:50 38.008836 -126.682407 292 32165ft 514kts
24-Jul-18 13:51 38.071355 -126.844792 291 32163ft 512kts
24-Jul-18 13:52 38.132348 -127.007985 286 32167ft 509kts
24-Jul-18 13:53 38.175302 -127.178245 282 32164ft 506kts
24-Jul-18 13:54 38.216629 -127.349230 282 32164ft 506kts
24-Jul-18 13:55 38.258812 -127.520156 283 32163ft 507kts
24-Jul-18 13:56 38.300743 -127.691659 282 32134ft 507kts
24-Jul-18 13:57 38.342298 -127.863685 282 32134ft 507kts
24-Jul-18 13:58 38.383415 -128.035234 282 32144ft 507kts
24-Jul-18 13:59 38.424413 -128.207545 282 32148ft 507kts
24-Jul-18 14:00 38.465168 -128.380091 282 32148ft 507kts
24-Jul-18 14:01 38.505557 -128.552361 282 32149ft 506kts
24-Jul-18 14:02 38.545663 -128.724710 282 32149ft 506kts
24-Jul-18 14:03 38.585480 -128.897023 282 32150ft 506kts
24-Jul-18 14:04 38.625132 -129.069973 282 32154ft 506kts
24-Jul-18 14:05 38.664401 -129.242507 282 32150ft 506kts
24-Jul-18 14:06 38.703606 -129.416090 282 32139ft 507kts
24-Jul-18 14:07 38.735979 -129.560431 281 32139ft 507kts
24-Jul-18 14:08 38.775022 -129.734123 281 32135ft 507kts
24-Jul-18 14:09 38.819596 -129.937386 281 32141ft 507kts
24-Jul-18 14:10 38.854142 -130.081821 285 32137ft 509kts
24-Jul-18 14:11 38.907744 -130.282349 285 32137ft 510kts
24-Jul-18 14:12 38.953185 -130.455109 285 32138ft 509kts
24-Jul-18 14:13 38.998906 -130.627386 285 32139ft 509kts
24-Jul-18 14:14 39.043900 -130.800100 284 32140ft 509kts
24-Jul-18 14:15 39.088551 -130.973004 284 32140ft 509kts
24-Jul-18 14:16 39.125550 -131.117235 284 32140ft 509kts
24-Jul-18 14:17 39.169680 -131.290390 284 32141ft 509kts
24-Jul-18 14:18 39.213591 -131.463906 284 32141ft 509kts
24-Jul-18 14:19 39.257296 -131.637849 284 32142ft 510kts
24-Jul-18 14:20 39.300701 -131.811857 284 32142ft 509kts
24-Jul-18 14:21 39.343800 -131.985866 284 32144ft 509kts
24-Jul-18 14:22 39.386785 -132.160697 284 32143ft 510kts
24-Jul-18 14:23 39.429476 -132.335607 284 32141ft 509kts
24-Jul-18 14:24 39.471811 -132.510342 284 32141ft 509kts
24-Jul-18 14:25 39.513991 -132.685739 284 32133ft 509kts
24-Jul-18 14:26 39.555772 -132.860781 284 32133ft 509kts
24-Jul-18 14:27 39.597369 -133.036366 284 32133ft 509kts
24-Jul-18 14:28 39.638739 -133.212316 284 32133ft 509kts
24-Jul-18 14:29 39.679646 -133.387637 284 32134ft 509kts
24-Jul-18 14:30 39.720318 -133.563284 284 32134ft 508kts
24-Jul-18 14:31 39.760757 -133.739274 284 32135ft 508kts
24-Jul-18 14:32 39.800844 -133.915097 284 32135ft 507kts
24-Jul-18 14:33 39.840680 -134.091186 284 32137ft 507kts
24-Jul-18 14:34 39.880295 -134.267696 284 32137ft 507kts
24-Jul-18 14:35 39.919513 -134.443831 284 32138ft 507kts
24-Jul-18 14:36 39.958679 -134.621115 284 32139ft 508kts
24-Jul-18 14:37 39.997434 -134.797971 284 32140ft 508kts
24-Jul-18 14:38 40.035923 -134.975058 284 32144ft 506kts
24-Jul-18 14:39 40.074016 -135.151727 284 32141ft 506kts
24-Jul-18 14:40 40.111924 -135.328992 284 32142ft 506kts
24-Jul-18 14:41 40.149475 -135.506050 284 32137ft 507kts
24-Jul-18 14:42 40.186828 -135.683646 284 32142ft 506kts
24-Jul-18 14:43 40.223956 -135.861662 284 32143ft 507kts
24-Jul-18 14:44 40.260778 -136.039724 284 32144ft 507kts
24-Jul-18 14:45 40.297244 -136.217559 284 32145ft 506kts
24-Jul-18 14:46 40.333520 -136.395999 284 32143ft 506kts
24-Jul-18 14:47 40.369356 -136.573805 284 32143ft 505kts
24-Jul-18 14:48 40.404977 -136.752083 284 32143ft 504kts
24-Jul-18 14:49 40.440167 -136.929762 284 32145ft 503kts
24-Jul-18 14:50 40.475050 -137.107441 284 32145ft 501kts
24-Jul-18 14:51 40.509520 -137.284587 284 32146ft 501kts
24-Jul-18 14:52 40.543766 -137.462149 284 32146ft 500kts
24-Jul-18 14:53 40.577678 -137.639588 284 32148ft 500kts
24-Jul-18 14:54 40.611330 -137.817243 284 32148ft 500kts
24-Jul-18 14:55 40.644660 -137.994808 284 32148ft 500kts
24-Jul-18 14:56 40.677692 -138.172461 284 32146ft 499kts
24-Jul-18 14:57 40.710445 -138.350188 284 32149ft 499kts
24-Jul-18 14:58 40.742907 -138.528003 284 32192ft 498kts
24-Jul-18 14:59 40.775101 -138.706033 283 32192ft 498kts
24-Jul-18 15:00 40.806960 -138.883885 283 32194ft 498kts
24-Jul-18 15:01 40.838528 -139.061818 283 32195ft 498kts
24-Jul-18 15:02 40.869869 -139.240170 283 32196ft 498kts
24-Jul-18 15:03 40.900917 -139.418586 283 32197ft 498kts
24-Jul-18 15:04 40.931696 -139.596730 283 32198ft 498kts
24-Jul-18 15:05 40.962439 -139.775601 283 32185ft 498kts
24-Jul-18 15:06 40.992440 -139.954765 283 32185ft 499kts
24-Jul-18 15:07 41.006829 -140.137218 272 32187ft 500kts
24-Jul-18 15:08 41.012991 -140.321431 273 32187ft 501kts
24-Jul-18 15:09 41.020093 -140.506114 273 32187ft 501kts
24-Jul-18 15:10 41.027684 -140.690571 273 32188ft 501kts
24-Jul-18 15:11 41.034500 -140.874863 273 32189ft 502kts
24-Jul-18 15:12 41.040970 -141.059805 273 32189ft 502kts
24-Jul-18 15:13 41.047151 -141.245354 273 32190ft 503kts
24-Jul-18 15:14 41.053010 -141.430185 272 32191ft 503kts
24-Jul-18 15:15 41.058599 -141.616024 272 32192ft 504kts
24-Jul-18 15:16 41.063874 -141.801415 272 32196ft 504kts
24-Jul-18 15:17 41.068888 -141.987723 272 32192ft 504kts
24-Jul-18 15:18 41.073590 -142.173890 272 32193ft 506kts
24-Jul-18 15:19 41.077992 -142.360057 272 32193ft 506kts
24-Jul-18 15:20 41.082103 -142.546668 272 32194ft 506kts
24-Jul-18 15:21 41.085904 -142.732936 272 32194ft 507kts
24-Jul-18 15:22 41.089429 -142.920406 272 32194ft 507kts
24-Jul-18 15:23 41.092635 -143.107058 272 32195ft 508kts
24-Jul-18 15:24 41.095545 -143.294018 272 32195ft 508kts
24-Jul-18 15:25 41.098154 -143.481181 272 32195ft 508kts
24-Jul-18 15:26 41.100469 -143.669160 271 32196ft 509kts
24-Jul-18 15:27 41.102464 -143.856093 271 32193ft 508kts
24-Jul-18 15:28 41.104176 -144.044137 271 32197ft 509kts
24-Jul-18 15:29 41.105574 -144.231890 271 32197ft 509kts
24-Jul-18 15:30 41.106671 -144.419765 271 32197ft 509kts
24-Jul-18 15:31 41.107457 -144.606836 271 32202ft 509kts
24-Jul-18 15:32 41.107945 -144.794833 271 32161ft 508kts
24-Jul-18 15:33 41.108125 -144.981930 270 32161ft 508kts
24-Jul-18 15:34 41.108000 -145.169332 271 32164ft 508kts
24-Jul-18 15:35 41.107569 -145.357007 270 32166ft 508kts
24-Jul-18 15:36 41.106845 -145.544271 270 32146ft 508kts
24-Jul-18 15:37 41.105814 -145.731269 270 32145ft 508kts
24-Jul-18 15:38 41.104474 -145.919096 270 32145ft 508kts
24-Jul-18 15:39 41.102837 -146.106045 270 32144ft 507kts
24-Jul-18 15:40 41.100902 -146.292709 269 32143ft 507kts
24-Jul-18 15:41 41.098661 -146.479615 269 32112ft 507kts
24-Jul-18 15:42 41.096123 -146.666244 269 32112ft 507kts
24-Jul-18 15:43 41.093272 -146.853511 269 32112ft 507kts
24-Jul-18 15:44 41.090131 -147.040081 269 32113ft 506kts
24-Jul-18 15:45 41.086694 -147.226262 269 32123ft 506kts
24-Jul-18 15:46 41.082955 -147.412737 269 32122ft 506kts
24-Jul-18 15:47 41.078926 -147.598673 268 32121ft 505kts
24-Jul-18 15:48 41.074587 -147.784995 268 32122ft 505kts
24-Jul-18 15:49 41.069955 -147.970986 268 32115ft 505kts
24-Jul-18 15:50 41.065025 -148.157043 268 32114ft 504kts
24-Jul-18 15:51 41.059810 -148.342517 268 32132ft 503kts
24-Jul-18 15:52 41.054300 -148.527806 268 32133ft 503kts
24-Jul-18 15:53 41.048490 -148.713307 268 32132ft 503kts
24-Jul-18 15:54 41.042395 -148.898375 268 32132ft 503kts
24-Jul-18 15:55 41.036013 -149.083150 267 32131ft 502kts
24-Jul-18 15:56 41.029341 -149.267829 267 32131ft 502kts
24-Jul-18 15:57 41.022373 -149.452494 267 32131ft 502kts
24-Jul-18 15:58 41.015484 -149.636772 267 32134ft 501kts
24-Jul-18 15:59 41.007786 -149.821476 267 32131ft 501kts
24-Jul-18 16:00 41.000377 -150.005448 270 32131ft 501kts
24-Jul-18 16:01 41.007241 -150.189301 273 32130ft 499kts
24-Jul-18 16:02 41.014676 -150.373274 273 32130ft 499kts
24-Jul-18 16:03 41.022268 -150.556436 273 32130ft 499kts
24-Jul-18 16:04 41.029549 -150.739876 273 32123ft 498kts
24-Jul-18 16:05 41.036220 -150.923187 273 32123ft 498kts
24-Jul-18 16:06 41.042567 -151.106864 273 32124ft 498kts
24-Jul-18 16:07 41.048593 -151.290019 272 32124ft 498kts
24-Jul-18 16:08 41.054331 -151.473125 272 32125ft 496kts
24-Jul-18 16:09 41.059765 -151.655899 272 32098ft 496kts
24-Jul-18 16:10 41.064903 -151.838635 272 32092ft 496kts
24-Jul-18 16:11 41.069761 -152.021396 272 32104ft 496kts
24-Jul-18 16:12 41.074310 -152.203442 272 32105ft 494kts
24-Jul-18 16:13 41.078573 -152.385551 271 32104ft 494kts
24-Jul-18 16:14 41.082545 -152.567550 271 32090ft 493kts
24-Jul-18 16:15 41.086218 -152.748858 271 32088ft 493kts
24-Jul-18 16:16 41.089616 -152.930726 271 32088ft 492kts
24-Jul-18 16:17 41.092712 -153.111601 271 32088ft 491kts
24-Jul-18 16:18 41.095528 -153.292752 271 32088ft 491kts
24-Jul-18 16:19 41.098056 -153.473629 271 32088ft 490kts
24-Jul-18 16:20 41.099943 -153.623953 271 32034ft 489kts
24-Jul-18 16:21 41.102256 -153.834409 270 32027ft 489kts
24-Jul-18 16:22 41.103932 -154.014841 270 32027ft 489kts
24-Jul-18 16:23 41.105326 -154.194778 270 32027ft 487kts
24-Jul-18 16:24 41.106438 -154.374503 270 32015ft 487kts
24-Jul-18 16:25 41.107271 -154.554499 270 32015ft 487kts
24-Jul-18 16:26 41.107750 -154.704163 270 32015ft 487kts
24-Jul-18 16:27 41.108071 -154.884390 270 32015ft 487kts
24-Jul-18 16:28 41.108111 -155.064067 270 32015ft 487kts
24-Jul-18 16:29 41.107872 -155.243319 270 32031ft 487kts
24-Jul-18 16:30 41.107357 -155.422427 270 32031ft 486kts
24-Jul-18 16:31 41.106563 -155.601699 269 32063ft 485kts
24-Jul-18 16:32 41.105494 -155.780519 269 32083ft 485kts
24-Jul-18 16:33 41.104146 -155.959745 269 32082ft 485kts
24-Jul-18 16:34 41.102519 -156.138465 269 32086ft 484kts
24-Jul-18 16:35 41.100627 -156.317105 269 32082ft 484kts
24-Jul-18 16:36 41.098450 -156.496134 269 32042ft 485kts
24-Jul-18 16:37 41.096004 -156.674522 269 32030ft 485kts
24-Jul-18 16:38 41.093285 -156.852787 269 32024ft 484kts
24-Jul-18 16:39 41.090287 -157.031123 269 32024ft 484kts
24-Jul-18 16:40 41.087017 -157.209573 269 32026ft 484kts
24-Jul-18 16:41 41.083475 -157.387764 268 32026ft 483kts
24-Jul-18 16:42 41.079663 -157.565557 268 32023ft 483kts
24-Jul-18 16:43 41.075578 -157.743578 268 32026ft 483kts
24-Jul-18 16:44 41.071219 -157.921480 268 32024ft 483kts
24-Jul-18 16:45 41.066593 -158.099115 268 32027ft 481kts
24-Jul-18 16:46 41.061720 -158.275717 268 32029ft 481kts
24-Jul-18 16:47 41.056565 -158.452918 268 32011ft 481kts
24-Jul-18 16:48 41.051149 -158.629658 268 32011ft 480kts
24-Jul-18 16:49 41.045456 -158.806600 268 32011ft 480kts
24-Jul-18 16:50 41.039489 -158.983619 267 32011ft 479kts
24-Jul-18 16:51 41.033280 -159.159841 267 32011ft 479kts
24-Jul-18 16:52 41.026797 -159.336187 267 32011ft 479kts
24-Jul-18 16:53 41.020054 -159.512309 267 32016ft 478kts
24-Jul-18 16:54 41.013471 -159.688084 267 32015ft 478kts
24-Jul-18 16:55 41.005939 -159.863889 267 32039ft 478kts
24-Jul-18 16:56 41.000813 -160.039935 272 32041ft 477kts
24-Jul-18 16:57 41.008401 -160.215077 273 32041ft 475kts
24-Jul-18 16:58 41.015298 -160.389503 273 32041ft 476kts
24-Jul-18 16:59 41.022630 -160.564837 273 32023ft 476kts
24-Jul-18 17:00 41.029523 -160.739164 273 32021ft 474kts
24-Jul-18 17:01 41.035896 -160.913982 273 32021ft 474kts
24-Jul-18 17:02 41.041939 -161.088265 273 32057ft 474kts
24-Jul-18 17:03 41.047725 -161.262963 272 32057ft 473kts
24-Jul-18 17:04 41.053218 -161.436912 272 32059ft 473kts
24-Jul-18 17:05 41.058453 -161.610872 272 32058ft 472kts
24-Jul-18 17:06 41.063425 -161.784853 272 32058ft 472kts
24-Jul-18 17:07 41.068125 -161.958470 272 32059ft 472kts
24-Jul-18 17:08 41.072578 -162.132696 272 32060ft 471kts
24-Jul-18 17:09 41.076745 -162.305913 272 32059ft 471kts
24-Jul-18 17:10 41.080666 -162.479747 272 32060ft 471kts
24-Jul-18 17:11 41.084316 -162.653225 272 32060ft 470kts
24-Jul-18 17:12 41.087699 -162.826205 272 32060ft 470kts
24-Jul-18 17:13 41.090832 -162.999735 271 32060ft 470kts
24-Jul-18 17:14 41.093700 -163.173054 271 32061ft 470kts
24-Jul-18 17:15 41.096305 -163.346136 271 32061ft 469kts
24-Jul-18 17:16 41.098650 -163.519133 271 32057ft 469kts
24-Jul-18 17:17 41.100730 -163.691917 271 32057ft 468kts
24-Jul-18 17:18 41.102550 -163.864214 271 32059ft 468kts
24-Jul-18 17:19 41.104117 -164.036786 271 32058ft 468kts
24-Jul-18 17:20 41.105428 -164.209461 271 32059ft 467kts
24-Jul-18 17:21 41.106478 -164.381736 271 32059ft 467kts
24-Jul-18 17:22 41.107269 -164.553770 271 32060ft 467kts
24-Jul-18 17:23 41.107806 -164.726397 271 32060ft 467kts
24-Jul-18 17:24 41.108086 -164.898600 271 32061ft 467kts
24-Jul-18 17:25 41.108108 -165.070888 271 32062ft 468kts
24-Jul-18 17:26 41.107874 -165.243338 270 32062ft 468kts
24-Jul-18 17:27 41.107382 -165.415988 270 32063ft 468kts
24-Jul-18 17:28 41.106631 -165.588606 270 32063ft 467kts
24-Jul-18 17:29 41.105629 -165.760569 270 32063ft 467kts
24-Jul-18 17:30 41.104370 -165.932527 270 32064ft 467kts
24-Jul-18 17:31 41.102854 -166.104391 270 32064ft 466kts
24-Jul-18 17:32 41.101080 -166.276888 270 32065ft 467kts
24-Jul-18 17:33 41.099049 -166.449210 270 32066ft 467kts
24-Jul-18 17:34 41.096766 -166.621184 270 32142ft 467kts
24-Jul-18 17:35 41.094213 -166.794075 270 32176ft 468kts
24-Jul-18 17:36 41.091410 -166.966052 270 32180ft 467kts
24-Jul-18 17:37 41.088352 -167.138670 270 32178ft 468kts
24-Jul-18 17:38 41.085027 -167.311494 270 32179ft 469kts
24-Jul-18 17:39 41.081444 -167.484224 269 32179ft 469kts
24-Jul-18 17:40 41.077608 -167.656764 269 32180ft 469kts
24-Jul-18 17:41 41.073497 -167.829965 269 32180ft 469kts
24-Jul-18 17:42 41.069139 -168.002684 269 32181ft 469kts
24-Jul-18 17:43 41.064517 -168.175633 269 32181ft 471kts
24-Jul-18 17:44 41.059611 -168.349429 269 32182ft 471kts
24-Jul-18 17:45 41.054467 -168.522461 269 32183ft 471kts
24-Jul-18 17:46 41.049048 -168.695974 269 32183ft 471kts
24-Jul-18 17:47 41.043351 -168.870005 269 32183ft 472kts
24-Jul-18 17:48 41.037403 -169.043694 269 32184ft 472kts
24-Jul-18 17:49 41.031180 -169.217753 269 32184ft 473kts
24-Jul-18 17:50 41.024696 -169.391812 269 32185ft 473kts
24-Jul-18 17:51 41.017948 -169.565972 268 32186ft 474kts
24-Jul-18 17:52 41.011278 -169.740264 268 32188ft 474kts
24-Jul-18 17:53 41.003725 -169.914572 268 32187ft 474kts
24-Jul-18 17:54 41.002640 -170.089062 275 32188ft 475kts
24-Jul-18 17:55 41.010397 -170.263347 274 32188ft 475kts
24-Jul-18 17:56 41.017122 -170.438441 274 32189ft 475kts
24-Jul-18 17:57 41.024630 -170.613082 274 32189ft 475kts
24-Jul-18 17:58 41.031331 -170.787790 274 32190ft 475kts
24-Jul-18 17:59 41.037614 -170.962726 274 32191ft 476kts
24-Jul-18 18:00 41.043611 -171.137937 274 32191ft 476kts
24-Jul-18 18:01 41.049333 -171.313033 274 32191ft 477kts
24-Jul-18 18:02 41.054811 -171.488885 274 32192ft 477kts
24-Jul-18 18:03 41.060016 -171.664595 274 32184ft 477kts
24-Jul-18 18:04 41.064964 -171.840697 274 32184ft 477kts
24-Jul-18 18:05 41.069636 -172.016484 274 32185ft 477kts
24-Jul-18 18:06 41.074046 -172.192636 274 32186ft 480kts
24-Jul-18 18:07 41.078220 -172.370012 274 32186ft 480kts
24-Jul-18 18:08 41.082108 -172.546836 273 32187ft 481kts
24-Jul-18 18:09 41.085730 -172.723949 273 32187ft 482kts
24-Jul-18 18:10 41.089099 -172.902061 273 32188ft 483kts
24-Jul-18 18:11 41.092189 -173.079925 273 32188ft 483kts
24-Jul-18 18:12 41.095010 -173.258333 273 32190ft 484kts
24-Jul-18 18:13 41.097558 -173.436395 273 32189ft 484kts
24-Jul-18 18:14 41.099836 -173.615119 273 32189ft 484kts
24-Jul-18 18:15 41.101839 -173.794108 273 32191ft 484kts
24-Jul-18 18:16 41.103563 -173.972474 273 32205ft 485kts
24-Jul-18 18:17 41.105016 -174.151534 273 32216ft 487kts
24-Jul-18 18:18 41.106198 -174.331752 272 32272ft 488kts
24-Jul-18 18:19 41.107097 -174.511570 272 32275ft 488kts
24-Jul-18 18:20 41.107716 -174.691932 272 32275ft 489kts
24-Jul-18 18:21 41.108057 -174.872197 272 32275ft 490kts
24-Jul-18 18:22 41.108115 -175.052699 272 32275ft 490kts
24-Jul-18 18:23 41.107891 -175.233974 272 32275ft 491kts
24-Jul-18 18:24 41.107380 -175.415256 272 32276ft 491kts
24-Jul-18 18:25 41.106587 -175.596719 272 32275ft 492kts
24-Jul-18 18:26 41.105511 -175.777782 271 32276ft 492kts
24-Jul-18 18:27 41.104149 -175.959140 271 32276ft 492kts
24-Jul-18 18:28 41.102498 -176.141063 271 32274ft 495kts
24-Jul-18 18:29 41.100551 -176.323708 271 32274ft 495kts
24-Jul-18 18:30 41.098322 -176.505705 271 32273ft 495kts
24-Jul-18 18:31 41.095792 -176.689024 271 32288ft 496kts
24-Jul-18 18:32 41.092975 -176.871850 270 32294ft 497kts
24-Jul-18 18:33 41.089870 -177.054900 270 32294ft 497kts
24-Jul-18 18:34 41.087059 -177.207362 270 32294ft 497kts
24-Jul-18 18:35 41.083407 -177.390973 270 32297ft 498kts
24-Jul-18 18:36 41.078775 -177.605353 270 32316ft 499kts
24-Jul-18 18:37 41.074483 -177.789216 269 32316ft 498kts
24-Jul-18 18:38 41.069910 -177.972750 269 32316ft 499kts
24-Jul-18 18:39 41.065876 -178.125733 269 32316ft 500kts
24-Jul-18 18:40 41.060942 -178.302952 269 32316ft 501kts
24-Jul-18 18:41 41.055525 -178.487451 269 32316ft 501kts
24-Jul-18 18:42 41.049806 -178.671901 268 32318ft 501kts
24-Jul-18 18:43 41.043794 -178.856651 268 32316ft 501kts
24-Jul-18 18:44 41.037497 -179.040879 268 32316ft 502kts
24-Jul-18 18:45 41.030891 -179.225623 268 32316ft 502kts
24-Jul-18 18:46 41.023964 -179.410982 267 32316ft 503kts
24-Jul-18 18:47 41.016909 -179.595689 268 32316ft 503kts
24-Jul-18 18:48 41.009567 -179.780317 267 32316ft 502kts
24-Jul-18 18:49 41.001530 -179.964962 267 32316ft 502kts
24-Jul-18 18:50 41.005503 179.849073 274 32621ft 509kts
24-Jul-18 18:51 41.013324 179.662011 273 33748ft 509kts
24-Jul-18 18:52 41.020892 179.474824 273 34326ft 508kts
24-Jul-18 18:53 41.028488 179.288032 273 34328ft 508kts
24-Jul-18 18:54 41.035363 179.100880 273 34316ft 508kts
24-Jul-18 18:55 41.041862 178.913903 272 34317ft 508kts
24-Jul-18 18:56 41.048042 178.727089 272 34316ft 508kts
24-Jul-18 18:57 41.053927 178.539938 272 34318ft 508kts
24-Jul-18 18:58 41.059516 178.352567 272 34318ft 508kts
24-Jul-18 18:59 41.064787 178.165640 272 34318ft 508kts
24-Jul-18 19:00 41.069768 177.978287 271 34317ft 508kts
24-Jul-18 19:01 41.074442 177.791017 271 34318ft 509kts
24-Jul-18 19:02 41.078824 177.603152 271 34318ft 509kts
24-Jul-18 19:03 41.082884 177.416135 271 34278ft 508kts
24-Jul-18 19:04 41.086655 177.228412 270 34278ft 509kts
24-Jul-18 19:05 41.090116 177.040774 270 34279ft 509kts
24-Jul-18 19:06 41.093277 176.853183 270 34278ft 509kts
24-Jul-18 19:07 41.096140 176.665026 270 34279ft 510kts
24-Jul-18 19:08 41.098684 176.477557 270 34278ft 509kts
24-Jul-18 19:09 41.100932 176.289532 269 34279ft 510kts
24-Jul-18 19:10 41.102881 176.101179 269 34279ft 510kts
24-Jul-18 19:11 41.104521 175.913351 269 34279ft 510kts
24-Jul-18 19:12 41.105849 175.725680 269 34279ft 510kts
24-Jul-18 19:13 41.106876 175.537661 269 34278ft 510kts
24-Jul-18 19:14 41.107596 175.349857 268 34278ft 509kts
24-Jul-18 19:15 41.108012 175.161799 268 34278ft 510kts
24-Jul-18 19:16 41.108115 174.973672 268 34276ft 510kts
24-Jul-18 19:17 41.107923 174.785453 268 34277ft 510kts
24-Jul-18 19:18 41.107423 174.597397 268 34278ft 509kts
24-Jul-18 19:19 41.106614 174.409269 268 34277ft 509kts
24-Jul-18 19:20 41.105506 174.221779 268 34277ft 509kts
24-Jul-18 19:21 41.104091 174.034134 267 34267ft 509kts
24-Jul-18 19:22 41.102371 173.846336 267 34267ft 509kts
24-Jul-18 19:23 41.100340 173.658178 267 34266ft 509kts
24-Jul-18 19:24 41.098004 173.470546 267 34268ft 509kts
24-Jul-18 19:25 41.095377 173.283074 267 34265ft 509kts
24-Jul-18 19:26 41.092433 173.094964 267 34264ft 509kts
24-Jul-18 19:27 41.089199 172.907862 267 34264ft 508kts
24-Jul-18 19:28 41.085661 172.720676 266 34255ft 508kts
24-Jul-18 19:29 41.081827 172.533856 266 34254ft 508kts
24-Jul-18 19:30 41.077679 172.346505 266 34253ft 507kts
24-Jul-18 19:31 41.073238 172.159638 266 34252ft 507kts
24-Jul-18 19:32 41.068498 171.973071 266 34253ft 507kts
24-Jul-18 19:33 41.063463 171.786394 266 34250ft 506kts
24-Jul-18 19:34 41.058128 171.599890 266 34250ft 506kts
24-Jul-18 19:35 41.052512 171.414096 266 34249ft 505kts
24-Jul-18 19:36 41.046586 171.227926 266 34244ft 504kts
24-Jul-18 19:37 41.040380 171.042394 266 34241ft 504kts
24-Jul-18 19:38 41.033886 170.857095 266 34241ft 505kts
24-Jul-18 19:39 41.027064 170.671082 266 34242ft 505kts
24-Jul-18 19:40 41.019972 170.485663 266 34239ft 504kts
24-Jul-18 19:41 41.012984 170.300147 266 34238ft 504kts
24-Jul-18 19:42 41.005026 170.115209 265 34237ft 503kts
24-Jul-18 19:43 40.996141 169.930118 265 34236ft 501kts
24-Jul-18 19:44 40.985098 169.746155 265 34235ft 500kts
24-Jul-18 19:45 40.973820 169.563134 265 34233ft 500kts
24-Jul-18 19:46 40.963444 169.379346 265 34232ft 499kts
24-Jul-18 19:47 40.952326 169.196708 265 34231ft 498kts
24-Jul-18 19:48 40.940734 169.013779 265 34231ft 498kts
24-Jul-18 19:49 40.928891 168.831868 266 34229ft 497kts
24-Jul-18 19:50 40.916742 168.649776 266 34229ft 496kts
24-Jul-18 19:51 40.904339 168.468214 266 34227ft 495kts
24-Jul-18 19:52 40.891654 168.286772 266 34227ft 495kts
24-Jul-18 19:53 40.878734 168.106129 266 34225ft 494kts
24-Jul-18 19:54 40.865486 167.924991 266 34224ft 493kts
24-Jul-18 19:55 40.852054 167.744990 266 34223ft 492kts
24-Jul-18 19:56 40.838350 167.565294 266 34221ft 493kts
24-Jul-18 19:57 40.824329 167.385202 266 34219ft 493kts
24-Jul-18 19:58 40.810009 167.204938 266 34219ft 493kts
24-Jul-18 19:59 40.795438 167.025119 266 34217ft 493kts
24-Jul-18 20:00 40.780567 166.845127 266 34217ft 493kts
24-Jul-18 20:01 40.765463 166.665759 266 34215ft 493kts
24-Jul-18 20:02 40.750020 166.485784 266 34195ft 493kts
24-Jul-18 20:03 40.734333 166.306277 266 34193ft 493kts
24-Jul-18 20:04 40.718349 166.126639 266 34192ft 493kts
24-Jul-18 20:05 40.702132 165.947590 266 34190ft 492kts
24-Jul-18 20:06 40.685630 165.768530 265 34189ft 493kts
24-Jul-18 20:07 40.668794 165.588961 265 34187ft 493kts
24-Jul-18 20:08 40.651686 165.409581 265 34172ft 493kts
24-Jul-18 20:09 40.634305 165.230271 265 34170ft 494kts
24-Jul-18 20:10 40.616644 165.051051 265 34168ft 494kts
24-Jul-18 20:11 40.598653 164.871412 265 34167ft 495kts
24-Jul-18 20:12 40.580410 164.692119 265 34165ft 495kts
24-Jul-18 20:13 40.561869 164.512728 265 34149ft 496kts
24-Jul-18 20:14 40.542985 164.332808 264 34138ft 496kts
24-Jul-18 20:15 40.523843 164.153189 264 34136ft 496kts
24-Jul-18 20:16 40.504443 163.973850 264 34135ft 496kts
24-Jul-18 20:17 40.484727 163.794278 264 34133ft 496kts
24-Jul-18 20:18 40.464805 163.615436 264 34132ft 496kts
24-Jul-18 20:19 40.444571 163.436379 263 34130ft 496kts
24-Jul-18 20:20 40.424063 163.257459 263 34128ft 495kts
24-Jul-18 20:21 40.403272 163.078571 263 34126ft 495kts
24-Jul-18 20:22 40.382202 162.899781 263 34125ft 495kts
24-Jul-18 20:23 40.360902 162.721474 262 34123ft 495kts
24-Jul-18 20:24 40.339370 162.543618 262 34121ft 495kts
24-Jul-18 20:25 40.317458 162.365006 262 34120ft 495kts
24-Jul-18 20:26 40.295343 162.187082 261 34117ft 495kts
24-Jul-18 20:27 40.272949 162.009215 261 34116ft 495kts
24-Jul-18 20:28 40.250339 161.831910 261 34114ft 495kts
24-Jul-18 20:29 40.227385 161.654155 261 34112ft 494kts
24-Jul-18 20:30 40.204187 161.476727 261 34110ft 493kts
24-Jul-18 20:31 40.180857 161.300460 260 34109ft 492kts
24-Jul-18 20:32 40.157259 161.124295 260 34106ft 491kts
24-Jul-18 20:33 40.133398 160.948290 260 34105ft 490kts
24-Jul-18 20:34 40.109349 160.772973 259 34103ft 490kts
24-Jul-18 20:35 40.085102 160.598242 259 34101ft 489kts
24-Jul-18 20:36 40.060549 160.423308 259 34099ft 489kts
24-Jul-18 20:37 40.036137 160.248940 258 34097ft 489kts
24-Jul-18 20:38 40.010892 160.074955 258 34095ft 488kts
24-Jul-18 20:39 39.985706 159.900824 258 34094ft 489kts
24-Jul-18 20:40 39.960165 159.726371 258 34091ft 489kts
24-Jul-18 20:41 39.934446 159.552712 258 34090ft 489kts
24-Jul-18 20:42 39.909558 159.378361 258 34088ft 489kts
24-Jul-18 20:43 39.883833 159.204441 258 34086ft 489kts
24-Jul-18 20:44 39.862086 159.059521 257 34084ft 489kts
24-Jul-18 20:45 39.831366 158.857138 257 34082ft 489kts
24-Jul-18 20:46 39.804726 158.683657 257 34079ft 488kts
24-Jul-18 20:47 39.777888 158.510691 257 34078ft 488kts
24-Jul-18 20:48 39.755380 158.367007 257 33996ft 488kts
24-Jul-18 20:49 39.728100 158.194456 257 33966ft 487kts
24-Jul-18 20:50 39.700543 158.021920 257 33965ft 487kts
24-Jul-18 20:51 39.672802 157.849962 256 33964ft 487kts
24-Jul-18 20:52 39.644787 157.678008 256 33963ft 487kts
24-Jul-18 20:53 39.611820 157.477823 256 33962ft 487kts
24-Jul-18 20:54 39.587959 157.334310 256 33961ft 487kts
24-Jul-18 20:55 39.559198 157.162853 256 33960ft 487kts
24-Jul-18 20:56 39.530123 156.991179 255 33960ft 487kts
24-Jul-18 20:57 39.500915 156.820347 255 33959ft 486kts
24-Jul-18 20:58 39.471400 156.649326 255 33958ft 486kts
24-Jul-18 20:59 39.441676 156.478686 255 33957ft 485kts
24-Jul-18 21:00 39.411813 156.308816 254 33956ft 485kts
24-Jul-18 21:01 39.381590 156.138467 254 33955ft 485kts
24-Jul-18 21:02 39.351255 155.968993 254 33954ft 485kts
24-Jul-18 21:03 39.320529 155.798901 254 33954ft 486kts
24-Jul-18 21:04 39.289637 155.629394 253 33953ft 486kts
24-Jul-18 21:05 39.258380 155.459386 253 33952ft 487kts
24-Jul-18 21:06 39.226868 155.289489 253 33951ft 488kts
24-Jul-18 21:07 39.195069 155.119526 253 33950ft 488kts
24-Jul-18 21:08 39.162930 154.949219 252 33949ft 489kts
24-Jul-18 21:09 39.130420 154.778438 252 33948ft 490kts
24-Jul-18 21:10 39.097719 154.608103 252 33948ft 490kts
24-Jul-18 21:11 39.064824 154.438222 251 33947ft 490kts
24-Jul-18 21:12 39.031578 154.267941 251 33945ft 491kts
24-Jul-18 21:13 38.997977 154.097289 251 33945ft 491kts
24-Jul-18 21:14 38.964161 153.926895 250 33944ft 491kts
24-Jul-18 21:15 38.930158 153.757089 250 33943ft 491kts
24-Jul-18 21:16 38.895996 153.587829 250 33942ft 491kts
24-Jul-18 21:17 38.861473 153.418150 250 33941ft 490kts
24-Jul-18 21:18 38.826788 153.249035 249 33941ft 489kts
24-Jul-18 21:19 38.791861 153.080108 249 33940ft 489kts
24-Jul-18 21:20 38.756818 152.911953 249 33942ft 488kts
24-Jul-18 21:21 38.721650 152.744484 249 33938ft 487kts
24-Jul-18 21:22 38.686239 152.577217 248 33950ft 486kts
24-Jul-18 21:23 38.650663 152.410386 248 33948ft 486kts
24-Jul-18 21:24 38.614867 152.243823 248 33948ft 486kts
24-Jul-18 21:25 38.578766 152.077118 248 33947ft 485kts
24-Jul-18 21:26 38.542579 151.911261 248 33946ft 484kts
24-Jul-18 21:27 38.506136 151.745477 248 33945ft 484kts
24-Jul-18 21:28 38.469685 151.580876 248 33945ft 483kts
24-Jul-18 21:29 38.432847 151.415728 248 33944ft 483kts
24-Jul-18 21:30 38.395880 151.251238 248 33944ft 482kts
24-Jul-18 21:31 38.358722 151.087025 248 33943ft 481kts
24-Jul-18 21:32 38.321501 150.923737 248 33943ft 480kts
24-Jul-18 21:33 38.284101 150.760811 248 33942ft 479kts
24-Jul-18 21:34 38.246512 150.598192 248 33941ft 478kts
24-Jul-18 21:35 38.208828 150.436298 248 33941ft 477kts
24-Jul-18 21:36 38.171235 150.274340 247 33940ft 476kts
24-Jul-18 21:37 38.133111 150.113825 247 33939ft 475kts
24-Jul-18 21:38 38.089376 149.956216 239 33962ft 471kts
24-Jul-18 21:39 38.028299 149.807837 237 34801ft 477kts
24-Jul-18 21:40 37.966742 149.658453 238 35677ft 481kts
24-Jul-18 21:41 37.905309 149.507147 239 35937ft 483kts
24-Jul-18 21:42 37.843457 149.355964 240 35936ft 486kts
24-Jul-18 21:43 37.780561 149.203437 240 35936ft 490kts
24-Jul-18 21:44 37.716898 149.049868 241 35935ft 495kts
24-Jul-18 21:45 37.652506 148.895298 242 35935ft 501kts
24-Jul-18 21:46 37.587094 148.739045 243 35934ft 505kts
24-Jul-18 21:47 37.521128 148.582234 243 35942ft 509kts
24-Jul-18 21:48 37.454231 148.423994 244 35934ft 512kts
24-Jul-18 21:49 37.387170 148.266148 244 35933ft 513kts
24-Jul-18 21:50 37.319585 148.107851 244 35931ft 513kts
24-Jul-18 21:51 37.251690 147.949685 244 35930ft 516kts
24-Jul-18 21:52 37.182978 147.790275 245 35929ft 519kts
24-Jul-18 21:53 37.114240 147.631617 245 35894ft 518kts
24-Jul-18 21:54 37.045272 147.473223 245 35887ft 517kts
24-Jul-18 21:55 36.976124 147.315186 245 35887ft 517kts
24-Jul-18 21:56 36.907110 147.158212 245 35886ft 517kts
24-Jul-18 21:57 36.837661 147.001007 245 35886ft 517kts
24-Jul-18 21:58 36.767825 146.843683 246 35885ft 518kts
24-Jul-18 21:59 36.697586 146.686205 246 35884ft 519kts
24-Jul-18 22:00 36.627295 146.529359 246 35884ft 519kts
24-Jul-18 22:01 36.556744 146.372674 246 35883ft 519kts
24-Jul-18 22:02 36.485914 146.216107 246 35883ft 518kts
24-Jul-18 22:03 36.415140 146.060396 246 35883ft 519kts
24-Jul-18 22:04 36.343944 145.904485 247 35883ft 520kts
24-Jul-18 22:05 36.272746 145.748551 247 35875ft 520kts
24-Jul-18 22:06 36.200918 145.593091 246 35867ft 521kts
24-Jul-18 22:07 36.138231 145.433020 261 35872ft 510kts
24-Jul-18 22:08 36.110867 145.261793 265 35865ft 513kts
24-Jul-18 22:09 36.084542 145.088060 265 35865ft 515kts
24-Jul-18 22:10 36.058316 144.913384 265 35867ft 518kts
24-Jul-18 22:11 36.031274 144.737788 266 35868ft 520kts
24-Jul-18 22:12 36.003859 144.562243 266 35867ft 522kts
24-Jul-18 22:13 35.976192 144.386884 266 35867ft 519kts
24-Jul-18 22:14 35.948490 144.211239 266 35866ft 521kts
24-Jul-18 22:15 35.920106 144.035449 266 35869ft 523kts
24-Jul-18 22:16 35.892711 143.859997 271 35869ft 519kts
24-Jul-18 22:17 35.883077 143.683560 274 35867ft 512kts
24-Jul-18 22:18 35.873870 143.508864 274 35867ft 512kts
24-Jul-18 22:19 35.864796 143.333525 274 35866ft 512kts
24-Jul-18 22:20 35.855153 143.157955 273 35863ft 513kts
24-Jul-18 22:21 35.845180 142.983139 273 35861ft 513kts
24-Jul-18 22:22 35.835176 142.807181 272 35863ft 514kts
24-Jul-18 22:23 35.824369 142.631194 272 35863ft 516kts
24-Jul-18 22:24 35.814918 142.454279 273 35863ft 517kts
24-Jul-18 22:25 35.806300 142.277616 273 35863ft 518kts
24-Jul-18 22:26 35.797590 142.100420 273 35861ft 518kts
24-Jul-18 22:27 35.789110 141.923321 273 35862ft 519kts
24-Jul-18 22:28 35.779948 141.745804 272 35861ft 519kts
24-Jul-18 22:29 35.770503 141.568539 272 35857ft 519kts
24-Jul-18 22:30 35.760819 141.391724 272 35856ft 518kts
24-Jul-18 22:31 35.750917 141.215602 271 35854ft 517kts
24-Jul-18 22:32 35.740971 141.038228 271 35853ft 517kts
24-Jul-18 22:33 35.730301 140.862004 271 35852ft 516kts
24-Jul-18 22:34 35.689231 140.691084 250 35851ft 530kts
24-Jul-18 22:35 35.628043 140.525437 249 35849ft 533kts
24-Jul-18 22:36 35.568081 140.359030 250 35853ft 531kts
24-Jul-18 22:37 35.508435 140.192987 249 35856ft 531kts
24-Jul-18 22:38 35.448074 140.027863 249 35825ft 531kts
24-Jul-18 22:39 35.391696 139.860901 257 35824ft 527kts
24-Jul-18 22:40 35.353019 139.687998 258 35818ft 525kts
24-Jul-18 22:41 35.314634 139.516262 262 35820ft 523kts
24-Jul-18 22:42 35.294537 139.340749 266 35843ft 519kts
24-Jul-18 22:43 35.274658 139.165824 266 35929ft 519kts
24-Jul-18 22:44 35.255200 138.990549 265 35973ft 519kts
24-Jul-18 22:45 35.234628 138.815994 265 35989ft 519kts
24-Jul-18 22:46 35.214344 138.640990 266 35964ft 519kts
24-Jul-18 22:47 35.194760 138.466584 265 35919ft 519kts
24-Jul-18 22:48 35.174398 138.291578 265 35882ft 519kts
24-Jul-18 22:49 35.154031 138.117611 265 35861ft 518kts
24-Jul-18 22:50 35.133632 137.943079 264 35855ft 519kts
24-Jul-18 22:51 35.112513 137.768428 264 35825ft 519kts
24-Jul-18 22:52 35.091447 137.593904 264 35819ft 519kts
24-Jul-18 22:53 35.064027 137.420697 252 35816ft 523kts
24-Jul-18 22:54 35.003791 137.258876 246 35803ft 527kts
24-Jul-18 22:55 34.941410 137.097191 246 35794ft 526kts
24-Jul-18 22:56 34.879958 136.935297 246 35788ft 527kts
24-Jul-18 22:57 34.817850 136.773396 246 35787ft 527kts
24-Jul-18 22:58 34.755757 136.612523 246 35785ft 526kts
24-Jul-18 22:59 34.693434 136.450995 246 35780ft 526kts
24-Jul-18 23:00 34.630828 136.290917 245 35772ft 526kts
24-Jul-18 23:01 34.566915 136.131050 243 35772ft 526kts
24-Jul-18 23:02 34.510156 136.000507 243 35768ft 525kts
24-Jul-18 23:03 34.430782 135.817320 243 35765ft 525kts
24-Jul-18 23:04 34.363493 135.660591 243 35764ft 525kts
24-Jul-18 23:05 34.295652 135.504443 243 35777ft 524kts
24-Jul-18 23:06 34.227803 135.349089 242 35784ft 524kts
24-Jul-18 23:07 34.170988 135.218971 242 35789ft 524kts
24-Jul-18 23:08 34.102690 135.064019 242 35803ft 522kts
24-Jul-18 23:09 34.034233 134.909619 242 35810ft 522kts
24-Jul-18 23:10 33.965614 134.755815 241 35814ft 521kts
24-Jul-18 23:11 33.896775 134.602361 241 35815ft 520kts
24-Jul-18 23:12 33.828575 134.449368 241 35813ft 519kts
24-Jul-18 23:13 33.759859 134.296395 241 35811ft 519kts
24-Jul-18 23:14 33.691208 134.144530 241 35806ft 518kts
24-Jul-18 23:15 33.622198 133.992563 240 35791ft 518kts
24-Jul-18 23:16 33.553015 133.840854 240 35794ft 519kts
24-Jul-18 23:17 33.483369 133.688799 240 35772ft 521kts
24-Jul-18 23:18 33.413324 133.536408 240 35738ft 529kts
24-Jul-18 23:19 33.343923 133.385582 239 35894ft 513kts
24-Jul-18 23:20 33.273571 133.234446 239 35854ft 517kts
24-Jul-18 23:21 33.194386 133.090190 232 35821ft 515kts
24-Jul-18 23:22 33.110759 132.949690 232 35801ft 521kts
24-Jul-18 23:23 33.027558 132.808486 232 35799ft 520kts
24-Jul-18 23:24 32.944252 132.667388 232 35796ft 520kts
24-Jul-18 23:25 32.860786 132.526921 231 35774ft 520kts
24-Jul-18 23:26 32.777425 132.386697 231 35773ft 520kts
24-Jul-18 23:27 32.693306 132.246558 231 35774ft 521kts
24-Jul-18 23:28 32.609959 132.105945 232 35774ft 521kts
24-Jul-18 23:29 32.526596 131.964607 231 35776ft 522kts
24-Jul-18 23:30 32.443292 131.824127 231 35778ft 521kts
24-Jul-18 23:31 32.360056 131.683442 231 35783ft 522kts
24-Jul-18 23:32 32.276740 131.543021 231 35784ft 521kts
24-Jul-18 23:33 32.193097 131.402937 231 35788ft 521kts
24-Jul-18 23:34 32.109303 131.263148 231 35791ft 521kts
24-Jul-18 23:35 32.025676 131.124147 231 35794ft 520kts
24-Jul-18 23:36 31.941959 130.985501 231 35803ft 518kts
24-Jul-18 23:37 31.858593 130.847497 231 35813ft 518kts
24-Jul-18 23:38 31.774804 130.709876 231 35816ft 518kts
24-Jul-18 23:39 31.690642 130.572438 230 35816ft 518kts
24-Jul-18 23:40 31.602115 130.438895 229 35817ft 517kts
24-Jul-18 23:41 31.514389 130.305751 229 35817ft 517kts
24-Jul-18 23:42 31.425943 130.172785 229 35818ft 516kts
24-Jul-18 23:43 31.338110 130.039954 229 35819ft 516kts
24-Jul-18 23:44 31.250326 129.907573 229 35819ft 513kts
24-Jul-18 23:45 31.162537 129.776691 229 35824ft 512kts
24-Jul-18 23:46 31.074609 129.645917 229 35827ft 511kts
24-Jul-18 23:47 30.987083 129.515220 229 35827ft 510kts
24-Jul-18 23:48 30.899735 129.385460 229 35828ft 509kts
24-Jul-18 23:49 30.812129 129.256431 230 35827ft 508kts
24-Jul-18 23:50 30.725442 129.126660 231 35828ft 508kts
24-Jul-18 23:51 30.639459 128.996230 231 35827ft 507kts
24-Jul-18 23:52 30.553722 128.866514 231 35824ft 507kts
24-Jul-18 23:53 30.467927 128.736290 231 35820ft 506kts
24-Jul-18 23:54 30.381994 128.606854 231 35806ft 506kts
24-Jul-18 23:55 30.296285 128.478229 231 35805ft 505kts
24-Jul-18 23:56 30.210209 128.349470 231 35803ft 504kts
24-Jul-18 23:57 30.124311 128.221386 232 35803ft 504kts
24-Jul-18 23:58 30.038595 128.093637 232 35802ft 503kts
24-Jul-18 23:59 29.952423 127.966049 232 35802ft 504kts
25-Jul-18 00:00 29.866052 127.838686 231 35802ft 504kts
25-Jul-18 00:01 29.775136 127.716081 229 35800ft 503kts
25-Jul-18 00:02 29.683913 127.593976 229 35801ft 503kts
25-Jul-18 00:03 29.592390 127.471918 229 35802ft 503kts
25-Jul-18 00:04 29.505047 127.346589 231 35802ft 502kts
25-Jul-18 00:05 29.418162 127.221161 231 35815ft 502kts
25-Jul-18 00:06 29.331236 127.095644 231 35812ft 502kts
25-Jul-18 00:07 29.244390 126.970747 231 35812ft 502kts
25-Jul-18 00:08 29.157319 126.845873 232 35812ft 501kts
25-Jul-18 00:09 29.070179 126.721471 231 35812ft 502kts
25-Jul-18 00:10 28.982653 126.597157 231 35812ft 502kts
25-Jul-18 00:11 28.892681 126.474882 230 35798ft 501kts
25-Jul-18 00:12 28.802818 126.353530 230 35797ft 501kts
25-Jul-18 00:13 28.712536 126.232427 230 35777ft 500kts
25-Jul-18 00:14 28.622718 126.111744 231 35776ft 500kts
25-Jul-18 00:15 28.535027 125.987968 232 36597ft 503kts
25-Jul-18 00:16 28.447088 125.864560 232 37759ft 499kts
25-Jul-18 00:17 28.359863 125.741745 232 37780ft 499kts
25-Jul-18 00:18 28.272544 125.619464 232 37779ft 499kts
25-Jul-18 00:19 28.185044 125.497424 232 37779ft 499kts
25-Jul-18 00:20 28.097473 125.375649 231 37778ft 499kts
25-Jul-18 00:21 28.009538 125.253717 231 37778ft 499kts
25-Jul-18 00:22 27.921483 125.131963 231 37777ft 500kts
25-Jul-18 00:23 27.833412 125.010530 231 37766ft 500kts
25-Jul-18 00:24 27.745165 124.888900 231 37767ft 500kts
25-Jul-18 00:25 27.656488 124.767540 231 37766ft 501kts
25-Jul-18 00:26 27.567835 124.646418 231 37767ft 501kts
25-Jul-18 00:27 27.478691 124.524976 231 37767ft 501kts
25-Jul-18 00:28 27.389826 124.404013 231 37768ft 501kts
25-Jul-18 00:29 27.301103 124.283142 231 37768ft 502kts
25-Jul-18 00:30 27.212174 124.162414 231 37769ft 502kts
25-Jul-18 00:31 27.122628 124.041686 230 37769ft 503kts
25-Jul-18 00:32 27.032375 123.921285 230 37770ft 503kts
25-Jul-18 00:33 26.941861 123.801549 230 37771ft 504kts
25-Jul-18 00:34 26.850967 123.681328 230 37771ft 505kts
25-Jul-18 00:35 26.760372 123.561416 229 37772ft 505kts
25-Jul-18 00:36 26.669223 123.441440 229 37773ft 507kts
25-Jul-18 00:37 26.577734 123.321366 229 37774ft 507kts
25-Jul-18 00:38 26.486328 123.201410 229 37774ft 506kts
25-Jul-18 00:39 26.394908 123.082264 229 37778ft 506kts
25-Jul-18 00:40 26.303203 122.962364 229 37779ft 506kts
25-Jul-18 00:41 26.212542 122.842528 229 37766ft 506kts
25-Jul-18 00:42 26.121817 122.722346 229 37766ft 506kts
25-Jul-18 00:43 26.030954 122.602711 229 37766ft 506kts
25-Jul-18 00:44 25.939930 122.483460 228 37765ft 508kts
25-Jul-18 00:45 25.845921 122.365891 227 37765ft 508kts
25-Jul-18 00:46 25.752411 122.248449 227 37764ft 508kts
25-Jul-18 00:47 25.658741 122.131653 227 37763ft 508kts
25-Jul-18 00:48 25.565362 122.014032 228 37762ft 508kts
25-Jul-18 00:49 25.472557 121.896284 227 37760ft 507kts
25-Jul-18 00:50 25.379666 121.778507 228 37759ft 508kts
25-Jul-18 00:51 25.287104 121.661058 227 37758ft 508kts
25-Jul-18 00:52 25.194199 121.544013 227 37757ft 508kts
25-Jul-18 00:53 25.099165 121.427871 226 37757ft 508kts
25-Jul-18 00:54 25.003828 121.312737 226 37757ft 509kts
25-Jul-18 00:55 24.908785 121.197727 226 37758ft 509kts
25-Jul-18 00:56 24.813327 121.082337 226 37761ft 509kts
25-Jul-18 00:57 24.717818 120.967395 225 37767ft 508kts
25-Jul-18 00:58 24.622338 120.852794 225 37775ft 508kts
25-Jul-18 00:59 24.526848 120.738463 225 37782ft 508kts
25-Jul-18 01:00 24.431033 120.624021 225 37785ft 507kts
25-Jul-18 01:01 24.335532 120.510229 225 37786ft 507kts
25-Jul-18 01:02 24.240273 120.396994 225 37801ft 506kts
25-Jul-18 01:03 24.144354 120.283259 225 37788ft 506kts
25-Jul-18 01:04 24.048879 120.170295 225 37785ft 506kts
25-Jul-18 01:05 23.953263 120.057435 224 37784ft 505kts
25-Jul-18 01:06 23.857780 119.944994 224 37783ft 505kts
25-Jul-18 01:07 23.762022 119.832241 224 37783ft 505kts
25-Jul-18 01:08 23.666122 119.719976 224 37782ft 505kts
25-Jul-18 01:09 23.574913 119.603974 234 37783ft 506kts
25-Jul-18 01:10 23.500247 119.474005 236 37780ft 507kts
25-Jul-18 01:11 23.425092 119.344397 236 37779ft 506kts
25-Jul-18 01:12 23.350002 119.214857 236 37780ft 505kts
25-Jul-18 01:13 23.274641 119.085650 236 37777ft 505kts
25-Jul-18 01:14 23.199598 118.957399 236 37776ft 504kts
25-Jul-18 01:15 23.124228 118.828835 236 37775ft 503kts
25-Jul-18 01:16 23.049151 118.700983 236 37774ft 502kts
25-Jul-18 01:17 22.974083 118.573860 236 37773ft 501kts
25-Jul-18 01:18 22.898481 118.446693 236 37782ft 499kts
25-Jul-18 01:19 22.823094 118.320428 236 37781ft 499kts
25-Jul-18 01:20 22.747987 118.194143 236 37779ft 498kts
25-Jul-18 01:21 22.685349 118.089502 236 37776ft 496kts
25-Jul-18 01:22 22.610113 117.964278 236 37766ft 494kts
25-Jul-18 01:23 22.535898 117.839677 237 37755ft 493kts
25-Jul-18 01:24 22.461868 117.714924 237 37755ft 493kts
25-Jul-18 01:25 22.387283 117.590138 237 37751ft 493kts
25-Jul-18 01:26 22.334396 117.455694 262 37760ft 493kts
25-Jul-18 01:27 22.329039 117.307604 269 37745ft 492kts
25-Jul-18 01:28 22.326706 117.159619 268 37839ft 494kts
25-Jul-18 01:29 22.324126 117.011445 268 37756ft 494kts
25-Jul-18 01:30 22.321171 116.863244 268 37756ft 492kts
25-Jul-18 01:31 22.318013 116.715533 268 37754ft 492kts
25-Jul-18 01:32 22.314713 116.567810 268 37780ft 492kts
25-Jul-18 01:33 22.311287 116.421763 268 37774ft 487kts
25-Jul-18 01:34 22.307766 116.274709 268 37747ft 489kts
25-Jul-18 01:35 22.304390 116.133490 268 37652ft 445kts
25-Jul-18 01:36 22.300989 116.002712 268 36445ft 445kts
25-Jul-18 01:37 22.297353 115.870980 268 34673ft 432kts
25-Jul-18 01:38 22.293091 115.743427 267 32812ft 418kts
25-Jul-18 01:39 22.288402 115.620382 268 30983ft 402kts
25-Jul-18 01:40 22.283795 115.501713 267 29179ft 398kts
25-Jul-18 01:41 22.279582 115.380485 267 27253ft 399kts
25-Jul-18 01:42 22.274857 115.263068 266 25370ft 385kts
25-Jul-18 01:43 22.270120 115.149327 264 23516ft 374kts
25-Jul-18 01:44 22.251762 115.040504 257 21717ft 366kts
25-Jul-18 01:45 22.232650 114.933096 261 19868ft 362kts
25-Jul-18 01:46 22.230269 114.825705 268 18055ft 356kts
25-Jul-18 01:47 22.229314 114.719824 267 16272ft 349kts
25-Jul-18 01:48 22.227918 114.616492 267 14524ft 338kts
25-Jul-18 01:49 22.226672 114.516997 267 13117ft 321kts
25-Jul-18 01:50 22.225316 114.422391 267 12088ft 313kts
25-Jul-18 01:51 22.224231 114.329087 268 11051ft 309kts
25-Jul-18 01:52 22.222898 114.236649 267 10022ft 304kts
25-Jul-18 01:53 22.221466 114.147725 267 9034ft 292kts
25-Jul-18 01:54 22.220043 114.060678 267 8066ft 287kts
25-Jul-18 01:55 22.217863 113.977522 266 6911ft 269kts
25-Jul-18 01:56 22.216107 113.897482 276 5871ft 265kts
25-Jul-18 01:57 22.260490 113.843420 356 5656ft 248kts
25-Jul-18 01:58 22.308478 113.880656 73 5315ft 205kts
25-Jul-18 01:59 22.316884 113.939833 86 4322ft 197kts
25-Jul-18 02:00 22.320470 113.994546 87 3703ft 174kts
25-Jul-18 02:01 22.323797 114.045872 87 2782ft 164kts
25-Jul-18 02:02 22.326897 114.093687 89 1923ft 159kts
25-Jul-18 02:03 22.329812 114.139239 87 1091ft 152kts
25-Jul-18 02:04 22.331247 114.183916 107 310ft 148kts
25-Jul-18 02:05 22.306949 114.213589 133 13ft 51kts
25-Jul-18 02:06 22.305957 114.216378 312 13ft 19kts
25-Jul-18 02:07 22.309340 114.212496 309 13ft 15kts
25-Jul-18 02:08 22.311998 114.209415 313 13ft 12kts
25-Jul-18 02:09 22.314221 114.206880 313 13ft 10kts
25-Jul-18 02:10 22.316334 114.204497 313 13ft 13kts
25-Jul-18 02:11 22.319204 114.201251 313 13ft 15kts
25-Jul-18 02:12 22.321877 114.198301 314 13ft 12kts
25-Jul-18 02:13 22.324420 114.195610 314 13ft 13kts
25-Jul-18 02:14 22.326481 114.194780 43 13ft 13kts
25-Jul-18 02:15 22.328247 114.195784 313 13ft 4kts
25-Jul-18 02:16 22.328510 114.195486 313 13ft 0kts
25-Jul-18 02:17 22.328510 114.195486 313 13ft 0kts
25-Jul-18 02:18 22.328510 114.195486 313 13ft 0kts
25-Jul-18 02:19 22.328510 114.195486 313 13ft 0kts

Navigation Log

Ident Type
Flight plan parsing failed, navigation log unavailable